Airfield :
LOGIN :

Register | Disclaimer

   EN    FR    IT 

 










Legend :    VFR   Marginal VFR   IFR   Intensive IFR   Very Intensive IFR
Visi :
Ceiling :
>= 8 km
>= 3000ft
5 to 8 km
1000 to 3000 ft
1500m to 5 km
500 to 1000 ft
800 to 1500m
200 to 500 ft
< 800m
< 200 ft
Symbols :   Thunderstorms  Fog  Heavy snow  Heavy precipitations  Wind > 20 kt
SIGMETs :     Misc.  Thunderstorms  Icing  Turbulence  Mountain Waves  Volcanic Ashes







- Airport Elevation : 1036 ft
- IATA code : ERF


EDDE - Erfurt

CURRENT METAR :
  • 260650Z 26014KT 9999 FEW025 BKN030 08/03 Q1014 TEMPO 25015G30KT

EXPIRED METARs :
  • 260620Z 25014KT 230V290 9999 FEW025 BKN030 08/03 Q1014 NOSIG
  • 260550Z 24011KT 9999 FEW026 08/03 Q1013 NOSIG
  • 260520Z 24014KT 9999 FEW030 08/03 Q1013 NOSIG
  • 260450Z 24012KT 9999 FEW030 07/03 Q1013 NOSIG
  • 260420Z 26013KT 9999 FEW026 07/03 Q1012 NOSIG

TAF TAF EDDE
Valid from the 26 at 06:00 until the 27 at 06:00 UTC


260500Z 2606/2706 24008KT CAVOK
BECMG 2607/2610 25015G25KT SCT020CB
TEMPO 2609/2615 26025G35KT SHRA BKN020CB
BECMG 2616/2618 22007KT
BECMG 2619/2621 CAVOK
No reported NOTAMs for that airfield.



MET'MAP, your aeronautical weather chart ! - Copyright ORBIFLY December 2007 - Disclaimer

ORBIFLY MET'MAP TEAM :

Programming & Development : Alexandra Zaïnal
Concept & Development : Baudouin d'Aumeries
Co-Development & Prog : Marc-Olivier Méhu
Technical & hardware support : Manuel Goepfert

Contact : metmap@orbifly.com




SOURCES & CREDITS :

   NOAA